KJVL/JVL METAR and TAF weather

Enter ICAO airport designator
Station Type Date Time Source
KJVL METAR 2020/02/25 11:45 UTC NOAA

KJVL 251145Z 03011G18KT 10SM BKN120 01/M02 A2995 RMK FIRST


Station Type Date Time Source
KJVL Decoded METAR 2020/02/25 11:45 UTC NOAA

Janesville / Rock County, WI, United States (KJVL) 42-37N 089-02W
Feb 25, 2020 - 06:45 AM EST / 2020.02.25 1145 UTC
Wind: from the NNE (030 degrees) at 13 MPH (11 KT) gusting to 21 MPH (18 KT):0
Visibility: 10 mile(s):0
Sky conditions: mostly cloudy
Temperature: 33 F (1 C)
Windchill: 23 F (-5 C):1
Dew Point: 28 F (-2 C)
Relative Humidity: 80%
Pressure (altimeter): 29.95 in. Hg (1014 hPa)
ob: KJVL 251145Z 03011G18KT 10SM BKN120 01/M02 A2995 RMK FIRST
cycle: 12

Station Type Date Time Source
KJVL TAF UTC NOAA

Error!

Example: see airport list